Time;durP1;ratioP1;P1;durP2;ratioP2;P2;SDS_P1;SDS_P2;PMS_P1;PMS_P2;Temp;Humidity;BMP_temperature;BMP_pressure;BME280_temperature;BME280_humidity;BME280_pressure;Samples;Min_cycle;Max_cycle;Signal;HPM_P1;HPM_P2
2021/12/28 00:00:01;;;;;;;1.50;1.40;;;;;;;18.81;49.60;98930.81;;;;-56
2021/12/28 00:03:01;;;;;;;1.61;1.49;;;;;;;18.80;49.61;98928.39;;;;-55
2021/12/28 00:06:01;;;;;;;1.51;1.41;;;;;;;18.78;49.61;98926.16;;;;-57
2021/12/28 00:09:01;;;;;;;1.50;1.40;;;;;;;18.77;49.63;98919.16;;;;-56
2021/12/28 00:12:01;;;;;;;1.63;1.53;;;;;;;18.74;49.63;98913.45;;;;-57
2021/12/28 00:15:06;;;;;;;1.62;1.52;;;;;;;18.73;49.64;98902.91;;;;-57
2021/12/28 00:18:02;;;;;;;1.62;1.52;;;;;;;18.71;49.66;98892.55;;;;-56
2021/12/28 00:21:01;;;;;;;1.67;1.47;;;;;;;18.70;49.66;98890.96;;;;-57
2021/12/28 00:24:02;;;;;;;1.51;1.41;;;;;;;18.68;49.66;98881.98;;;;-57
2021/12/28 00:27:01;;;;;;;1.57;1.47;;;;;;;18.66;49.68;98873.90;;;;-57
2021/12/28 00:30:03;;;;;;;1.60;1.50;;;;;;;18.65;49.64;98877.38;;;;-56
2021/12/28 00:33:01;;;;;;;1.67;1.57;;;;;;;18.63;49.70;98879.84;;;;-56
2021/12/28 00:36:01;;;;;;;1.61;1.51;;;;;;;18.62;49.67;98865.69;;;;-56
2021/12/28 00:39:01;;;;;;;1.60;1.50;;;;;;;18.61;49.68;98865.28;;;;-57
2021/12/28 00:42:01;;;;;;;1.60;1.50;;;;;;;18.60;49.69;98864.83;;;;-57
2021/12/28 00:45:01;;;;;;;1.59;1.49;;;;;;;18.58;49.71;98865.09;;;;-62
2021/12/28 00:48:01;;;;;;;1.65;1.51;;;;;;;18.57;49.71;98859.42;;;;-61
2021/12/28 00:51:01;;;;;;;1.61;1.50;;;;;;;18.56;49.70;98870.32;;;;-61
2021/12/28 00:54:01;;;;;;;1.73;1.55;;;;;;;18.54;49.73;98864.27;;;;-63
2021/12/28 00:57:01;;;;;;;1.52;1.42;;;;;;;18.53;49.72;98854.62;;;;-57
2021/12/28 01:00:01;;;;;;;1.51;1.41;;;;;;;18.51;49.74;98857.91;;;;-56
2021/12/28 01:03:01;;;;;;;1.61;1.50;;;;;;;18.51;49.76;98859.03;;;;-54
2021/12/28 01:06:01;;;;;;;1.50;1.40;;;;;;;18.49;49.76;98857.86;;;;-63
2021/12/28 01:09:01;;;;;;;1.57;1.47;;;;;;;18.47;49.75;98851.00;;;;-63
2021/12/28 01:12:01;;;;;;;1.55;1.45;;;;;;;18.46;49.76;98851.06;;;;-63
2021/12/28 01:15:01;;;;;;;1.51;1.41;;;;;;;18.45;49.76;98850.63;;;;-51
2021/12/28 01:18:01;;;;;;;1.54;1.43;;;;;;;18.44;49.81;98844.53;;;;-51
2021/12/28 01:21:01;;;;;;;1.70;1.60;;;;;;;18.43;49.79;98842.55;;;;-64
2021/12/28 01:24:01;;;;;;;1.63;1.53;;;;;;;18.42;49.78;98834.85;;;;-56
2021/12/28 01:27:01;;;;;;;1.65;1.46;;;;;;;18.40;49.82;98827.98;;;;-54
2021/12/28 01:30:01;;;;;;;1.50;1.40;;;;;;;18.40;49.80;98825.39;;;;-61
2021/12/28 01:33:01;;;;;;;1.53;1.43;;;;;;;18.38;49.83;98828.88;;;;-63
2021/12/28 01:36:01;;;;;;;1.43;1.33;;;;;;;18.38;49.79;98826.87;;;;-63
2021/12/28 01:39:01;;;;;;;1.75;1.40;;;;;;;18.36;49.83;98816.94;;;;-57
2021/12/28 01:42:04;;;;;;;1.50;1.40;;;;;;;18.35;49.85;98817.61;;;;-54
2021/12/28 01:45:02;;;;;;;1.50;1.40;;;;;;;18.34;49.84;98817.13;;;;-53
2021/12/28 01:48:01;;;;;;;1.42;1.32;;;;;;;18.33;49.85;98802.32;;;;-63
2021/12/28 01:51:01;;;;;;;1.59;1.49;;;;;;;18.32;49.85;98803.44;;;;-63
2021/12/28 01:54:01;;;;;;;1.51;1.41;;;;;;;18.30;49.84;98805.69;;;;-51
2021/12/28 01:57:01;;;;;;;1.66;1.56;;;;;;;18.30;49.86;98805.84;;;;-54
2021/12/28 02:00:01;;;;;;;1.50;1.40;;;;;;;18.28;49.86;98797.84;;;;-54
2021/12/28 02:03:01;;;;;;;1.51;1.41;;;;;;;18.27;49.90;98802.63;;;;-61
2021/12/28 02:06:01;;;;;;;1.55;1.45;;;;;;;18.26;49.87;98798.76;;;;-63
2021/12/28 02:09:03;;;;;;;1.51;1.41;;;;;;;18.26;49.90;98801.52;;;;-51
2021/12/28 02:12:01;;;;;;;1.50;1.40;;;;;;;18.24;49.91;98798.06;;;;-63
2021/12/28 02:15:06;;;;;;;1.44;1.34;;;;;;;18.24;49.89;98791.24;;;;-57
2021/12/28 02:18:01;;;;;;;1.55;1.44;;;;;;;18.23;49.93;98788.61;;;;-57
2021/12/28 02:21:01;;;;;;;1.50;1.40;;;;;;;18.21;49.94;98784.80;;;;-55
2021/12/28 02:24:01;;;;;;;1.55;1.45;;;;;;;18.21;49.91;98780.11;;;;-51
2021/12/28 02:27:01;;;;;;;1.40;1.30;;;;;;;18.19;49.90;98773.50;;;;-63
2021/12/28 02:30:01;;;;;;;1.50;1.40;;;;;;;18.18;49.90;98773.75;;;;-54
2021/12/28 02:33:01;;;;;;;1.43;1.33;;;;;;;18.17;49.90;98763.88;;;;-54
2021/12/28 02:36:01;;;;;;;1.43;1.33;;;;;;;18.16;49.90;98752.70;;;;-54
2021/12/28 02:39:01;;;;;;;1.43;1.33;;;;;;;18.15;49.94;98744.61;;;;-54
2021/12/28 02:42:01;;;;;;;1.59;1.49;;;;;;;18.14;49.93;98743.75;;;;-64
2021/12/28 02:45:02;;;;;;;1.52;1.42;;;;;;;18.14;49.94;98742.05;;;;-63
2021/12/28 02:48:01;;;;;;;1.40;1.30;;;;;;;18.13;49.93;98742.52;;;;-64
2021/12/28 02:51:01;;;;;;;1.40;1.30;;;;;;;18.12;49.97;98731.78;;;;-61
2021/12/28 02:54:01;;;;;;;1.51;1.39;;;;;;;18.10;49.99;98727.51;;;;-61
2021/12/28 02:57:01;;;;;;;1.40;1.30;;;;;;;18.09;49.97;98720.70;;;;-55
2021/12/28 03:00:01;;;;;;;1.60;1.50;;;;;;;18.10;49.96;98720.78;;;;-63
2021/12/28 03:03:01;;;;;;;1.40;1.30;;;;;;;18.08;49.97;98721.87;;;;-62
2021/12/28 03:06:01;;;;;;;1.49;1.39;;;;;;;18.08;49.96;98721.55;;;;-61
2021/12/28 03:09:01;;;;;;;1.57;1.47;;;;;;;18.06;50.00;98712.82;;;;-54
2021/12/28 03:12:01;;;;;;;1.50;1.40;;;;;;;18.05;49.93;98713.73;;;;-54
2021/12/28 03:15:01;;;;;;;1.49;1.39;;;;;;;18.04;49.97;98705.65;;;;-56
2021/12/28 03:18:01;;;;;;;1.49;1.39;;;;;;;18.04;49.97;98699.09;;;;-56
2021/12/28 03:21:01;;;;;;;1.44;1.34;;;;;;;18.03;49.99;98696.48;;;;-53
2021/12/28 03:24:01;;;;;;;1.47;1.37;;;;;;;18.02;49.98;98691.65;;;;-52
2021/12/28 03:27:01;;;;;;;1.49;1.39;;;;;;;18.01;50.01;98683.33;;;;-51
2021/12/28 03:30:01;;;;;;;1.40;1.30;;;;;;;18.01;49.98;98682.35;;;;-62
2021/12/28 03:33:01;;;;;;;1.53;1.43;;;;;;;18.00;50.04;98683.27;;;;-61
2021/12/28 03:36:01;;;;;;;1.40;1.30;;;;;;;17.98;49.98;98674.36;;;;-63
2021/12/28 03:39:01;;;;;;;1.52;1.42;;;;;;;17.97;50.01;98667.58;;;;-62
2021/12/28 03:42:02;;;;;;;1.47;1.37;;;;;;;17.96;50.01;98666.77;;;;-56
2021/12/28 03:45:01;;;;;;;1.40;1.30;;;;;;;17.96;50.00;98664.91;;;;-56
2021/12/28 03:48:01;;;;;;;1.47;1.31;;;;;;;17.95;50.01;98662.35;;;;-56
2021/12/28 03:51:01;;;;;;;1.40;1.30;;;;;;;17.94;50.00;98660.09;;;;-51
2021/12/28 03:54:01;;;;;;;1.77;1.49;;;;;;;17.94;50.03;98656.12;;;;-57
2021/12/28 03:57:01;;;;;;;1.40;1.30;;;;;;;17.92;50.04;98652.09;;;;-54
2021/12/28 04:00:01;;;;;;;1.49;1.39;;;;;;;17.91;50.04;98648.88;;;;-54
2021/12/28 04:03:01;;;;;;;1.40;1.30;;;;;;;17.92;50.02;98647.98;;;;-55
2021/12/28 04:06:07;;;;;;;1.35;1.25;;;;;;;17.91;50.02;98646.61;;;;-56
2021/12/28 04:09:03;;;;;;;1.40;1.30;;;;;;;17.91;50.01;98638.69;;;;-61
2021/12/28 04:12:01;;;;;;;1.50;1.40;;;;;;;17.90;50.03;98636.74;;;;-64
2021/12/28 04:15:01;;;;;;;1.30;1.20;;;;;;;17.89;50.03;98641.63;;;;-63
2021/12/28 04:18:01;;;;;;;1.55;1.40;;;;;;;17.89;49.99;98639.53;;;;-63
2021/12/28 04:21:01;;;;;;;1.47;1.37;;;;;;;17.88;50.01;98636.77;;;;-52
2021/12/28 04:24:01;;;;;;;1.40;1.30;;;;;;;17.87;50.05;98636.23;;;;-51
2021/12/28 04:27:01;;;;;;;1.41;1.31;;;;;;;17.86;50.02;98626.66;;;;-52
2021/12/28 04:30:01;;;;;;;1.42;1.32;;;;;;;17.86;50.03;98618.98;;;;-52
2021/12/28 04:33:01;;;;;;;1.30;1.20;;;;;;;17.85;50.02;98615.59;;;;-51
2021/12/28 04:36:01;;;;;;;1.28;1.19;;;;;;;17.85;50.02;98610.98;;;;-61
2021/12/28 04:39:01;;;;;;;1.31;1.21;;;;;;;17.84;50.01;98610.02;;;;-61
2021/12/28 04:42:01;;;;;;;1.40;1.30;;;;;;;17.83;50.01;98608.58;;;;-51
2021/12/28 04:45:01;;;;;;;1.49;1.30;;;;;;;17.83;50.02;98610.78;;;;-52
2021/12/28 04:48:01;;;;;;;1.38;1.28;;;;;;;17.82;50.08;98606.37;;;;-51
2021/12/28 04:51:01;;;;;;;1.40;1.30;;;;;;;17.81;50.03;98609.22;;;;-56
2021/12/28 04:54:06;;;;;;;1.43;1.33;;;;;;;17.80;50.05;98607.45;;;;-57
2021/12/28 04:57:01;;;;;;;1.34;1.16;;;;;;;17.79;50.05;98604.39;;;;-55
2021/12/28 05:00:01;;;;;;;1.30;1.20;;;;;;;17.78;50.05;98609.36;;;;-54
2021/12/28 05:03:01;;;;;;;1.46;1.30;;;;;;;17.78;50.07;98604.33;;;;-57
2021/12/28 05:06:01;;;;;;;1.41;1.31;;;;;;;17.77;50.05;98606.94;;;;-54
2021/12/28 05:09:01;;;;;;;1.41;1.19;;;;;;;17.77;50.09;98619.42;;;;-54
2021/12/28 05:12:01;;;;;;;1.40;1.30;;;;;;;17.76;50.08;98615.94;;;;-63
2021/12/28 05:15:01;;;;;;;1.40;1.30;;;;;;;17.76;50.06;98619.19;;;;-51
2021/12/28 05:18:01;;;;;;;1.40;1.30;;;;;;;17.75;50.08;98614.76;;;;-54
2021/12/28 05:21:01;;;;;;;1.39;1.29;;;;;;;17.75;50.06;98616.94;;;;-54
2021/12/28 05:24:01;;;;;;;1.30;1.20;;;;;;;17.74;50.10;98616.45;;;;-61
2021/12/28 05:27:01;;;;;;;1.39;1.29;;;;;;;17.73;50.12;98612.83;;;;-61
2021/12/28 05:30:01;;;;;;;1.41;1.31;;;;;;;17.72;50.10;98609.45;;;;-61
2021/12/28 05:33:01;;;;;;;1.49;1.23;;;;;;;17.71;50.10;98607.36;;;;-55
2021/12/28 05:36:01;;;;;;;1.31;1.20;;;;;;;17.72;50.11;98605.00;;;;-56
2021/12/28 05:39:01;;;;;;;1.41;1.31;;;;;;;17.71;50.10;98604.12;;;;-56
2021/12/28 05:42:01;;;;;;;1.40;1.30;;;;;;;17.70;50.12;98595.08;;;;-55
2021/12/28 05:45:01;;;;;;;1.33;1.21;;;;;;;17.70;50.08;98588.52;;;;-55
2021/12/28 05:48:01;;;;;;;1.42;1.32;;;;;;;17.70;50.08;98583.17;;;;-55
2021/12/28 05:51:01;;;;;;;1.17;1.07;;;;;;;17.71;50.10;98578.95;;;;-56
2021/12/28 05:54:01;;;;;;;1.42;1.32;;;;;;;17.70;50.08;98577.26;;;;-56
2021/12/28 05:57:01;;;;;;;1.41;1.31;;;;;;;17.70;50.07;98568.59;;;;-52
2021/12/28 06:00:01;;;;;;;1.41;1.30;;;;;;;17.70;50.11;98565.91;;;;-52
2021/12/28 06:03:01;;;;;;;1.20;1.19;;;;;;;17.71;50.05;98567.83;;;;-52
2021/12/28 06:06:01;;;;;;;1.37;1.27;;;;;;;17.71;50.08;98566.37;;;;-53
2021/12/28 06:09:01;;;;;;;1.35;1.25;;;;;;;17.71;50.11;98565.23;;;;-51
2021/12/28 06:12:01;;;;;;;1.35;1.25;;;;;;;17.72;50.08;98565.06;;;;-51
2021/12/28 06:15:01;;;;;;;1.35;1.25;;;;;;;17.73;50.08;98566.42;;;;-51
2021/12/28 06:18:01;;;;;;;1.43;1.33;;;;;;;17.74;50.09;98565.44;;;;-61
2021/12/28 06:21:01;;;;;;;1.49;1.35;;;;;;;17.73;50.08;98561.56;;;;-52
2021/12/28 06:24:01;;;;;;;1.31;1.21;;;;;;;17.74;50.08;98562.36;;;;-52
2021/12/28 06:27:01;;;;;;;1.45;1.30;;;;;;;17.74;50.04;98551.83;;;;-51
2021/12/28 06:30:01;;;;;;;1.35;1.25;;;;;;;17.74;50.05;98549.80;;;;-52
2021/12/28 06:33:01;;;;;;;1.31;1.21;;;;;;;17.75;50.02;98546.31;;;;-54
2021/12/28 06:36:01;;;;;;;1.25;1.15;;;;;;;17.75;50.07;98544.86;;;;-54
2021/12/28 06:39:01;;;;;;;1.41;1.30;;;;;;;17.75;50.02;98542.34;;;;-54
2021/12/28 06:42:01;;;;;;;1.40;1.30;;;;;;;17.75;50.06;98547.27;;;;-53
2021/12/28 06:45:01;;;;;;;2.47;1.30;;;;;;;17.74;50.16;98536.84;;;;-61
2021/12/28 06:48:01;;;;;;;3.78;1.75;;;;;;;17.55;50.65;98538.92;;;;-59
2021/12/28 06:51:01;;;;;;;3.99;1.79;;;;;;;17.44;51.03;98535.25;;;;-58
2021/12/28 06:54:01;;;;;;;4.01;1.91;;;;;;;17.35;51.27;98521.70;;;;-54
2021/12/28 06:57:01;;;;;;;4.10;1.87;;;;;;;17.28;51.49;98521.57;;;;-59
2021/12/28 07:00:01;;;;;;;3.14;1.69;;;;;;;17.19;51.77;98525.19;;;;-62
2021/12/28 07:03:02;;;;;;;4.01;1.81;;;;;;;17.12;51.87;98518.24;;;;-62
2021/12/28 07:06:02;;;;;;;5.47;2.07;;;;;;;17.16;52.12;98510.66;;;;-56
2021/12/28 07:09:01;;;;;;;3.95;1.76;;;;;;;17.24;51.59;98518.64;;;;-54
2021/12/28 07:12:01;;;;;;;3.92;1.70;;;;;;;17.31;51.45;98513.91;;;;-55
2021/12/28 07:15:01;;;;;;;3.18;1.80;;;;;;;17.37;51.33;98519.25;;;;-58
2021/12/28 07:18:01;;;;;;;2.90;1.63;;;;;;;17.42;51.13;98521.36;;;;-58
2021/12/28 07:21:02;;;;;;;3.33;1.90;;;;;;;17.45;51.03;98513.53;;;;-64
2021/12/28 07:24:01;;;;;;;3.86;1.77;;;;;;;17.50;50.97;98522.20;;;;-58
2021/12/28 07:27:01;;;;;;;3.23;1.58;;;;;;;17.52;50.89;98524.98;;;;-58
2021/12/28 07:30:01;;;;;;;3.83;1.89;;;;;;;17.55;50.82;98527.05;;;;-58
2021/12/28 07:33:01;;;;;;;4.17;1.80;;;;;;;17.57;50.80;98522.71;;;;-58
2021/12/28 07:36:01;;;;;;;3.41;1.74;;;;;;;17.58;50.79;98521.88;;;;-63
2021/12/28 07:39:01;;;;;;;2.93;1.66;;;;;;;17.60;50.67;98524.69;;;;-63
2021/12/28 07:42:01;;;;;;;3.57;1.60;;;;;;;17.62;50.66;98522.14;;;;-63
2021/12/28 07:45:01;;;;;;;2.34;1.60;;;;;;;17.63;50.66;98526.09;;;;-62
2021/12/28 07:48:01;;;;;;;2.40;1.56;;;;;;;17.63;50.60;98522.84;;;;-63
2021/12/28 07:51:01;;;;;;;2.85;1.52;;;;;;;17.65;50.58;98525.18;;;;-62
2021/12/28 07:54:01;;;;;;;2.86;1.69;;;;;;;17.65;50.61;98521.27;;;;-61
2021/12/28 07:57:01;;;;;;;2.85;1.59;;;;;;;17.66;50.55;98523.29;;;;-66
2021/12/28 08:00:01;;;;;;;2.77;1.53;;;;;;;17.66;50.50;98520.21;;;;-64
2021/12/28 08:03:04;;;;;;;2.37;1.73;;;;;;;17.67;50.54;98523.76;;;;-62
2021/12/28 08:06:01;;;;;;;3.09;1.69;;;;;;;17.68;50.48;98529.65;;;;-61
2021/12/28 08:09:01;;;;;;;2.34;1.67;;;;;;;17.68;50.45;98532.83;;;;-54
2021/12/28 08:12:01;;;;;;;4.15;1.53;;;;;;;17.68;50.48;98532.02;;;;-54
2021/12/28 08:15:02;;;;;;;1.86;1.50;;;;;;;17.68;50.48;98532.81;;;;-66
2021/12/28 08:18:02;;;;;;;1.92;1.39;;;;;;;17.68;50.44;98534.03;;;;-68
2021/12/28 08:21:01;;;;;;;2.48;1.46;;;;;;;17.68;50.45;98537.03;;;;-58
2021/12/28 08:24:01;;;;;;;2.50;1.50;;;;;;;17.69;50.44;98536.11;;;;-57
2021/12/28 08:27:01;;;;;;;2.08;1.50;;;;;;;17.67;50.41;98530.39;;;;-57
2021/12/28 08:30:01;;;;;;;2.53;1.57;;;;;;;17.68;50.39;98530.38;;;;-55
2021/12/28 08:33:01;;;;;;;2.42;1.55;;;;;;;17.68;50.38;98529.42;;;;-56
2021/12/28 08:36:01;;;;;;;2.16;1.45;;;;;;;17.67;50.41;98527.41;;;;-54
2021/12/28 08:39:01;;;;;;;2.09;1.49;;;;;;;17.67;50.40;98528.63;;;;-55
2021/12/28 08:42:01;;;;;;;1.95;1.50;;;;;;;17.66;50.34;98531.56;;;;-56
2021/12/28 08:45:01;;;;;;;1.68;1.25;;;;;;;17.67;50.36;98533.56;;;;-54
2021/12/28 08:48:01;;;;;;;1.59;1.33;;;;;;;17.66;50.39;98538.21;;;;-53
2021/12/28 08:51:01;;;;;;;1.82;1.49;;;;;;;17.66;50.37;98538.19;;;;-56
2021/12/28 08:54:01;;;;;;;2.05;1.49;;;;;;;17.66;50.34;98541.59;;;;-63
2021/12/28 08:57:01;;;;;;;2.50;1.59;;;;;;;17.65;50.37;98540.95;;;;-63
2021/12/28 09:00:01;;;;;;;1.73;1.37;;;;;;;17.66;50.36;98544.34;;;;-62
2021/12/28 09:03:01;;;;;;;2.42;1.56;;;;;;;17.66;50.39;98550.50;;;;-62
2021/12/28 09:06:02;;;;;;;1.42;1.30;;;;;;;17.66;50.63;98548.98;;;;-63
2021/12/28 09:09:01;;;;;;;1.88;1.37;;;;;;;17.66;50.57;98557.80;;;;-63
2021/12/28 09:12:01;;;;;;;2.01;1.49;;;;;;;17.65;50.51;98556.19;;;;-63
2021/12/28 09:15:01;;;;;;;2.23;1.42;;;;;;;17.65;50.49;98558.06;;;;-63
2021/12/28 09:18:01;;;;;;;2.12;1.50;;;;;;;17.66;50.50;98567.86;;;;-59
2021/12/28 09:21:01;;;;;;;1.71;1.40;;;;;;;17.69;50.99;98571.03;;;;-57
2021/12/28 09:24:01;;;;;;;2.37;1.45;;;;;;;17.71;51.16;98571.64;;;;-55
2021/12/28 09:27:01;;;;;;;2.64;1.61;;;;;;;17.75;51.48;98576.20;;;;-57
2021/12/28 09:30:01;;;;;;;2.58;1.39;;;;;;;17.80;51.63;98575.86;;;;-55
2021/12/28 09:33:01;;;;;;;1.84;1.42;;;;;;;17.85;51.59;98578.34;;;;-63
2021/12/28 09:36:02;;;;;;;2.27;1.40;;;;;;;17.91;51.52;98582.67;;;;-54
2021/12/28 09:39:01;;;;;;;4.02;1.49;;;;;;;17.96;51.13;98586.88;;;;-66
2021/12/28 09:42:01;;;;;;;7.12;1.69;;;;;;;18.03;51.48;98587.50;;;;-68
2021/12/28 09:45:01;;;;;;;3.81;1.67;;;;;;;18.10;51.66;98592.07;;;;-61
2021/12/28 09:48:01;;;;;;;2.31;1.59;;;;;;;18.16;51.39;98596.27;;;;-58
2021/12/28 09:51:01;;;;;;;1.95;1.40;;;;;;;18.21;51.64;98587.58;;;;-65
2021/12/28 09:54:01;;;;;;;2.09;1.30;;;;;;;18.28;51.68;98594.33;;;;-67
2021/12/28 09:57:01;;;;;;;1.71;1.30;;;;;;;18.33;51.76;98586.29;;;;-56
2021/12/28 10:00:01;;;;;;;2.70;1.43;;;;;;;18.35;51.20;98592.76;;;;-66
2021/12/28 10:03:01;;;;;;;1.56;1.29;;;;;;;18.35;50.73;98599.89;;;;-67
2021/12/28 10:06:01;;;;;;;2.23;1.17;;;;;;;18.36;50.86;98601.23;;;;-56
2021/12/28 10:09:01;;;;;;;1.73;1.31;;;;;;;18.36;50.63;98601.41;;;;-55
2021/12/28 10:12:01;;;;;;;1.76;1.40;;;;;;;18.37;50.53;98599.03;;;;-55
2021/12/28 10:15:02;;;;;;;1.90;1.31;;;;;;;18.38;50.44;98606.13;;;;-56
2021/12/28 10:18:01;;;;;;;1.91;1.25;;;;;;;18.40;50.45;98599.92;;;;-54
2021/12/28 10:21:01;;;;;;;1.83;1.37;;;;;;;18.42;50.36;98594.46;;;;-56
2021/12/28 10:24:01;;;;;;;1.66;1.27;;;;;;;18.44;50.28;98598.50;;;;-54
2021/12/28 10:27:01;;;;;;;1.77;1.39;;;;;;;18.45;50.26;98597.25;;;;-55
2021/12/28 10:30:01;;;;;;;1.17;1.07;;;;;;;18.47;50.26;98594.04;;;;-55
2021/12/28 10:33:01;;;;;;;1.24;1.14;;;;;;;18.49;50.24;98593.36;;;;-56
2021/12/28 10:36:01;;;;;;;4.90;1.48;;;;;;;18.53;50.55;98586.62;;;;-63
2021/12/28 10:39:01;;;;;;;3.51;1.31;;;;;;;18.57;50.65;98587.12;;;;-60
2021/12/28 10:42:01;;;;;;;2.56;1.30;;;;;;;18.62;50.75;98594.96;;;;-57
2021/12/28 10:45:01;;;;;;;2.59;1.34;;;;;;;18.69;50.80;98593.99;;;;-64
2021/12/28 10:48:01;;;;;;;7.10;1.29;;;;;;;18.71;50.85;98590.89;;;;-58
2021/12/28 10:51:02;;;;;;;2.59;1.46;;;;;;;18.75;50.75;98600.30;;;;-59
2021/12/28 10:54:12;;;;;;;3.39;1.54;;;;;;;18.77;50.59;98600.98;;;;-57
2021/12/28 10:57:01;;;;;;;2.77;1.11;;;;;;;18.81;50.63;98599.91;;;;-53
2021/12/28 11:00:01;;;;;;;1.74;1.29;;;;;;;18.84;50.93;98598.61;;;;-54
2021/12/28 11:03:01;;;;;;;2.96;1.35;;;;;;;18.89;50.90;98595.27;;;;-54
2021/12/28 11:06:01;;;;;;;1.77;1.49;;;;;;;18.92;50.98;98598.17;;;;-56
2021/12/28 11:09:01;;;;;;;1.61;1.17;;;;;;;18.95;50.75;98596.59;;;;-59
2021/12/28 11:12:03;;;;;;;2.75;1.31;;;;;;;18.97;50.71;98595.34;;;;-56
2021/12/28 11:15:01;;;;;;;2.95;1.23;;;;;;;18.97;50.55;98596.55;;;;-58
2021/12/28 11:18:01;;;;;;;3.85;1.26;;;;;;;19.00;50.71;98591.05;;;;-64
2021/12/28 11:21:01;;;;;;;6.75;1.39;;;;;;;19.01;50.69;98589.25;;;;-60
2021/12/28 11:24:01;;;;;;;1.75;1.29;;;;;;;19.03;50.62;98581.57;;;;-59
2021/12/28 11:27:01;;;;;;;2.18;1.30;;;;;;;19.06;50.58;98575.66;;;;-56
2021/12/28 11:30:01;;;;;;;2.01;1.35;;;;;;;19.07;50.56;98577.27;;;;-53
2021/12/28 11:33:01;;;;;;;2.49;1.37;;;;;;;19.11;50.51;98568.30;;;;-52
2021/12/28 11:36:01;;;;;;;2.97;1.36;;;;;;;19.14;50.56;98560.95;;;;-57
2021/12/28 11:39:01;;;;;;;2.69;1.27;;;;;;;19.14;49.92;98557.71;;;;-58
2021/12/28 11:42:01;;;;;;;2.22;1.26;;;;;;;19.15;50.17;98554.33;;;;-57
2021/12/28 11:45:02;;;;;;;1.55;1.20;;;;;;;19.16;49.85;98541.34;;;;-57
2021/12/28 11:48:01;;;;;;;3.05;1.31;;;;;;;19.18;50.05;98550.38;;;;-57
2021/12/28 11:51:01;;;;;;;1.99;1.28;;;;;;;19.19;49.88;98539.23;;;;-58
2021/12/28 11:54:01;;;;;;;1.88;1.36;;;;;;;19.20;49.74;98534.09;;;;-57
2021/12/28 11:57:02;;;;;;;2.17;1.31;;;;;;;19.23;50.04;98532.95;;;;-71
2021/12/28 12:00:02;;;;;;;1.93;1.23;;;;;;;19.22;49.78;98531.52;;;;-64
2021/12/28 12:03:02;;;;;;;1.80;1.33;;;;;;;19.22;49.79;98530.39;;;;-65
2021/12/28 12:06:01;;;;;;;1.63;1.39;;;;;;;19.22;49.89;98526.98;;;;-67
2021/12/28 12:09:01;;;;;;;2.47;1.37;;;;;;;19.23;49.99;98530.63;;;;-65
2021/12/28 12:12:01;;;;;;;2.59;1.40;;;;;;;19.24;50.17;98525.55;;;;-57
2021/12/28 12:15:03;;;;;;;1.89;1.35;;;;;;;19.27;50.03;98519.97;;;;-61
2021/12/28 12:18:01;;;;;;;2.33;1.50;;;;;;;19.28;49.82;98519.12;;;;-63
2021/12/28 12:21:01;;;;;;;1.63;1.28;;;;;;;19.32;50.02;98523.49;;;;-63
2021/12/28 12:24:01;;;;;;;1.48;1.23;;;;;;;19.33;49.96;98528.17;;;;-56
2021/12/28 12:27:01;;;;;;;1.43;1.29;;;;;;;19.35;49.78;98529.13;;;;-56
2021/12/28 12:30:01;;;;;;;1.39;1.27;;;;;;;19.35;49.64;98523.09;;;;-56
2021/12/28 12:33:01;;;;;;;2.37;1.10;;;;;;;19.36;49.61;98525.03;;;;-57
2021/12/28 12:36:01;;;;;;;1.30;1.20;;;;;;;19.37;49.56;98528.95;;;;-56
2021/12/28 12:39:01;;;;;;;1.43;1.30;;;;;;;19.39;49.52;98529.51;;;;-56
2021/12/28 12:42:01;;;;;;;1.31;1.20;;;;;;;19.40;49.54;98523.14;;;;-57
2021/12/28 12:45:01;;;;;;;1.32;1.20;;;;;;;19.41;49.56;98524.75;;;;-56
2021/12/28 12:48:01;;;;;;;1.26;1.15;;;;;;;19.42;49.59;98517.14;;;;-56
2021/12/28 12:51:01;;;;;;;1.35;1.25;;;;;;;19.43;49.52;98516.39;;;;-55
2021/12/28 12:54:01;;;;;;;1.25;1.13;;;;;;;19.43;49.43;98518.50;;;;-56
2021/12/28 12:57:01;;;;;;;1.28;1.17;;;;;;;19.46;49.41;98516.65;;;;-56
2021/12/28 13:00:01;;;;;;;1.49;1.25;;;;;;;19.47;49.52;98513.31;;;;-56
2021/12/28 13:03:01;;;;;;;1.21;1.09;;;;;;;19.48;49.43;98504.48;;;;-56
2021/12/28 13:06:01;;;;;;;1.36;1.14;;;;;;;19.51;49.55;98493.95;;;;-62
2021/12/28 13:09:01;;;;;;;1.88;1.09;;;;;;;19.52;49.38;98486.86;;;;-61
2021/12/28 13:12:01;;;;;;;1.22;1.13;;;;;;;19.54;49.44;98485.27;;;;-56
2021/12/28 13:15:02;;;;;;;1.11;1.07;;;;;;;19.56;49.47;98456.46;;;;-61
2021/12/28 13:18:01;;;;;;;1.08;1.08;;;;;;;19.56;49.25;98457.92;;;;-64
2021/12/28 13:21:01;;;;;;;1.08;1.01;;;;;;;19.56;49.45;98470.58;;;;-63
2021/12/28 13:24:01;;;;;;;1.30;1.20;;;;;;;19.57;49.30;98460.09;;;;-61
2021/12/28 13:27:01;;;;;;;1.20;1.13;;;;;;;19.57;49.27;98463.34;;;;-61
2021/12/28 13:30:01;;;;;;;1.77;1.41;;;;;;;19.58;49.68;98458.01;;;;-51
2021/12/28 13:33:01;;;;;;;2.75;1.61;;;;;;;19.57;49.87;98451.88;;;;-53
2021/12/28 13:36:01;;;;;;;2.51;1.59;;;;;;;19.58;50.18;98449.80;;;;-54
2021/12/28 13:39:01;;;;;;;3.28;1.41;;;;;;;19.61;49.93;98444.30;;;;-60
2021/12/28 13:42:01;;;;;;;1.75;1.40;;;;;;;19.62;49.81;98439.70;;;;-60
2021/12/28 13:45:01;;;;;;;1.82;1.31;;;;;;;19.65;49.87;98433.14;;;;-63
2021/12/28 13:48:01;;;;;;;3.70;1.45;;;;;;;19.68;49.93;98438.98;;;;-67
2021/12/28 13:51:01;;;;;;;3.35;1.24;;;;;;;19.70;49.88;98442.69;;;;-62
2021/12/28 13:54:02;;;;;;;2.74;1.41;;;;;;;19.73;49.89;98451.81;;;;-60
2021/12/28 13:57:02;;;;;;;2.73;1.47;;;;;;;19.72;49.52;98458.50;;;;-60
2021/12/28 14:00:01;;;;;;;3.79;1.41;;;;;;;19.71;49.43;98465.17;;;;-59
2021/12/28 14:03:01;;;;;;;2.33;1.39;;;;;;;19.72;49.49;98461.19;;;;-59
2021/12/28 14:06:01;;;;;;;2.58;1.27;;;;;;;19.72;49.39;98466.32;;;;-59
2021/12/28 14:09:02;;;;;;;2.05;1.31;;;;;;;19.73;49.40;98460.15;;;;-60
2021/12/28 14:12:04;;;;;;;1.39;1.27;;;;;;;19.74;49.32;98457.39;;;;-59
2021/12/28 14:15:01;;;;;;;1.69;1.22;;;;;;;19.76;49.50;98461.66;;;;-59
2021/12/28 14:18:01;;;;;;;2.71;1.20;;;;;;;19.77;49.34;98450.89;;;;-59
2021/12/28 14:21:01;;;;;;;1.47;1.28;;;;;;;19.77;49.31;98459.73;;;;-59
2021/12/28 14:24:01;;;;;;;1.95;1.30;;;;;;;19.78;49.36;98459.31;;;;-64
2021/12/28 14:27:00;;;;;;;1.61;1.30;;;;;;;19.79;49.31;98487.97;;;;-62
2021/12/28 14:30:01;;;;;;;2.13;1.25;;;;;;;19.82;49.36;98529.17;;;;-65
2021/12/28 14:33:00;;;;;;;2.13;1.36;;;;;;;19.82;49.38;98574.85;;;;-65
2021/12/28 14:36:01;;;;;;;1.39;1.23;;;;;;;19.81;49.28;98571.38;;;;-62
2021/12/28 14:39:01;;;;;;;2.67;1.20;;;;;;;19.83;49.29;98579.77;;;;-64
2021/12/28 14:42:01;;;;;;;1.60;1.21;;;;;;;19.83;49.17;98498.59;;;;-64
2021/12/28 14:45:01;;;;;;;1.65;1.13;;;;;;;19.82;49.15;98483.67;;;;-57
2021/12/28 14:48:01;;;;;;;1.52;1.40;;;;;;;19.83;49.34;98485.09;;;;-57
2021/12/28 14:51:01;;;;;;;2.11;1.35;;;;;;;19.83;49.35;98499.81;;;;-53
2021/12/28 14:54:01;;;;;;;1.38;1.28;;;;;;;19.82;49.21;98523.24;;;;-53
2021/12/28 14:57:01;;;;;;;1.42;1.20;;;;;;;19.83;49.25;98521.85;;;;-53
2021/12/28 15:00:01;;;;;;;1.65;1.27;;;;;;;19.84;49.29;98518.73;;;;-53
2021/12/28 15:03:01;;;;;;;2.24;1.29;;;;;;;19.84;49.19;98523.59;;;;-57
2021/12/28 15:06:02;;;;;;;1.45;1.20;;;;;;;19.84;49.20;98527.27;;;;-57
2021/12/28 15:09:01;;;;;;;1.29;1.17;;;;;;;19.84;49.14;98536.11;;;;-57
2021/12/28 15:12:01;;;;;;;4.29;1.74;;;;;;;19.84;49.67;98555.56;;;;-53
2021/12/28 15:15:00;;;;;;;3.11;2.08;;;;;;;19.84;50.09;98604.08;;;;-52
2021/12/28 15:18:00;;;;;;;5.59;2.28;;;;;;;19.84;50.14;98626.92;;;;-53
2021/12/28 15:21:01;;;;;;;3.89;2.08;;;;;;;19.85;50.29;98630.72;;;;-51
2021/12/28 15:24:01;;;;;;;3.49;1.97;;;;;;;19.84;50.35;98629.44;;;;-50
2021/12/28 15:27:01;;;;;;;5.46;2.03;;;;;;;19.85;50.40;98627.12;;;;-58
2021/12/28 15:30:03;;;;;;;3.40;1.79;;;;;;;19.88;50.74;98637.06;;;;-55
2021/12/28 15:33:01;;;;;;;2.79;1.81;;;;;;;19.92;50.68;98653.38;;;;-59
2021/12/28 15:36:02;;;;;;;3.43;1.70;;;;;;;19.96;50.60;98649.19;;;;-62
2021/12/28 15:39:01;;;;;;;4.31;1.79;;;;;;;19.97;50.52;98637.22;;;;-61
2021/12/28 15:42:01;;;;;;;4.45;1.81;;;;;;;20.02;50.46;98631.27;;;;-58
2021/12/28 15:45:01;;;;;;;2.55;1.65;;;;;;;20.05;50.48;98630.13;;;;-52
2021/12/28 15:48:01;;;;;;;4.65;1.61;;;;;;;20.08;50.44;98624.03;;;;-54
2021/12/28 15:51:01;;;;;;;2.13;1.64;;;;;;;20.08;50.29;98627.67;;;;-63
2021/12/28 15:54:01;;;;;;;2.49;1.49;;;;;;;20.10;49.93;98596.09;;;;-53
2021/12/28 15:57:01;;;;;;;2.78;1.78;;;;;;;20.13;50.00;98618.05;;;;-51
2021/12/28 16:00:01;;;;;;;3.23;1.71;;;;;;;20.15;50.18;98603.44;;;;-51
2021/12/28 16:03:01;;;;;;;2.89;1.79;;;;;;;20.18;50.04;98591.41;;;;-62
2021/12/28 16:06:01;;;;;;;3.90;1.56;;;;;;;20.21;50.38;98637.03;;;;-62
2021/12/28 16:09:01;;;;;;;2.02;1.50;;;;;;;20.23;50.25;98644.78;;;;-57
2021/12/28 16:12:01;;;;;;;3.57;1.60;;;;;;;20.23;50.06;98649.73;;;;-59
2021/12/28 16:15:01;;;;;;;2.51;1.51;;;;;;;20.27;50.14;98666.31;;;;-65
2021/12/28 16:18:01;;;;;;;2.79;1.49;;;;;;;20.29;50.32;98675.77;;;;-59
2021/12/28 16:21:01;;;;;;;4.49;1.42;;;;;;;20.33;50.43;98679.59;;;;-59
2021/12/28 16:24:01;;;;;;;1.90;1.51;;;;;;;20.35;50.32;98686.19;;;;-63
2021/12/28 16:27:01;;;;;;;2.31;1.56;;;;;;;20.37;50.24;98698.82;;;;-56
2021/12/28 16:30:01;;;;;;;3.33;1.55;;;;;;;20.39;50.30;98705.37;;;;-56
2021/12/28 16:33:01;;;;;;;3.16;1.65;;;;;;;20.39;50.22;98716.34;;;;-56
2021/12/28 16:36:05;;;;;;;2.19;1.41;;;;;;;20.43;50.20;98722.47;;;;-58
2021/12/28 16:39:01;;;;;;;3.31;1.57;;;;;;;20.43;50.18;98732.05;;;;-61
2021/12/28 16:42:01;;;;;;;2.78;1.39;;;;;;;20.42;50.04;98740.12;;;;-54
2021/12/28 16:45:01;;;;;;;1.67;1.46;;;;;;;20.42;50.03;98756.32;;;;-52
2021/12/28 16:48:00;;;;;;;2.48;1.39;;;;;;;20.40;49.71;98758.17;;;;-55
2021/12/28 16:51:01;;;;;;;2.49;1.51;;;;;;;20.42;50.05;98754.37;;;;-53
2021/12/28 16:54:01;;;;;;;1.81;1.42;;;;;;;20.41;50.09;98762.38;;;;-62